createdAt,value
2022-11-12T00:00:42.788Z,97042.84
2022-11-12T00:03:28.878Z,97034.72
2022-11-12T00:06:15.117Z,97034.72
2022-11-12T00:09:01.066Z,97023.16
2022-11-12T00:11:47.076Z,97024.69
2022-11-12T00:14:33.171Z,97023.16
2022-11-12T00:17:18.959Z,97022.63
2022-11-12T00:20:06.034Z,97014.19
2022-11-12T00:22:51.959Z,97022.28
2022-11-12T00:25:40.887Z,97018.88
2022-11-12T00:28:26.965Z,97018.44
2022-11-12T00:31:13.110Z,97018.81
2022-11-12T00:33:58.943Z,97011.94
2022-11-12T00:36:44.650Z,97006.94
2022-11-12T00:39:30.709Z,97010.38
2022-11-12T00:42:16.870Z,97007.28
2022-11-12T00:45:02.958Z,96995.38
2022-11-12T00:47:49.036Z,96998.06
2022-11-12T00:50:35.068Z,96995.72
2022-11-12T00:53:21.155Z,96997.63
2022-11-12T00:56:07.835Z,96991.09
2022-11-12T00:58:54.573Z,96995.38
2022-11-12T01:01:40.876Z,96990.03
2022-11-12T01:04:26.762Z,96983.47
2022-11-12T01:07:12.657Z,96973.03
2022-11-12T01:09:58.259Z,96992.22
2022-11-12T01:12:44.197Z,96977.53
2022-11-12T01:15:30.072Z,96970.63
2022-11-12T01:18:16.043Z,96972.16
2022-11-12T01:21:03.842Z,96974.91
2022-11-12T01:23:50.055Z,96972.91
2022-11-12T01:26:36.308Z,96966.41
2022-11-12T01:29:22.504Z,96963.63
2022-11-12T01:32:08.548Z,96960.88
2022-11-12T01:34:54.596Z,96953.56
2022-11-12T01:37:40.584Z,96955.91
2022-11-12T01:40:26.565Z,96956.25
2022-11-12T01:43:14.033Z,96962.47
2022-11-12T01:46:08.319Z,96959.00
2022-11-12T01:48:59.593Z,96955.50
2022-11-12T01:51:51.055Z,96959.66
2022-11-12T01:54:37.925Z,96948.09
2022-11-12T01:57:34.962Z,96943.19
2022-11-12T02:00:21.346Z,96940.75
2022-11-12T02:03:13.169Z,96940.81
2022-11-12T02:06:07.274Z,96943.88
2022-11-12T02:08:54.062Z,96940.00
2022-11-12T02:11:40.084Z,96946.50
2022-11-12T02:14:25.966Z,96934.94
2022-11-12T02:17:11.719Z,96938.38
2022-11-12T02:20:01.645Z,96934.25
2022-11-12T02:22:47.479Z,96928.44
2022-11-12T02:25:34.731Z,96928.75
2022-11-12T02:28:21.698Z,96921.50
2022-11-12T02:31:07.434Z,96924.59
2022-11-12T02:33:53.598Z,96926.88
2022-11-12T02:36:39.697Z,96917.22
2022-11-12T02:39:25.733Z,96920.28
2022-11-12T02:42:11.338Z,96911.72
2022-11-12T02:44:57.333Z,96912.16
2022-11-12T02:47:43.653Z,96914.44
2022-11-12T02:50:29.655Z,96913.25
2022-11-12T02:53:15.510Z,96917.09
2022-11-12T02:56:01.676Z,96915.94
2022-11-12T02:58:47.449Z,96914.38
2022-11-12T03:01:33.522Z,96914.47
2022-11-12T03:04:19.295Z,96906.78
2022-11-12T03:07:05.594Z,96912.88
2022-11-12T03:09:52.104Z,96906.00
2022-11-12T03:12:37.749Z,96910.22
2022-11-12T03:15:23.887Z,96903.63
2022-11-12T03:18:09.937Z,96874.22
2022-11-12T03:20:55.931Z,96891.31
2022-11-12T03:23:41.964Z,96886.72
2022-11-12T03:26:31.689Z,96896.34
2022-11-12T03:29:20.801Z,96895.13
2022-11-12T03:32:06.830Z,96897.03
2022-11-12T03:34:55.403Z,96888.47
2022-11-12T03:37:41.920Z,96886.59
2022-11-12T03:40:28.269Z,96886.97
2022-11-12T03:43:14.537Z,96871.28
2022-11-12T03:46:00.311Z,96874.00
2022-11-12T03:48:46.457Z,96875.59
2022-11-12T03:51:32.207Z,96863.97
2022-11-12T03:54:18.231Z,96851.41
2022-11-12T03:57:04.664Z,96844.94
2022-11-12T03:59:50.359Z,96842.28
2022-11-12T04:02:36.611Z,96833.88
2022-11-12T04:05:41.803Z,96822.28
2022-11-12T04:08:36.686Z,96835.38
2022-11-12T04:11:22.975Z,96828.06
2022-11-12T04:14:09.056Z,96839.19
2022-11-12T04:17:13.484Z,96835.69
2022-11-12T04:20:17.928Z,96837.59
2022-11-12T04:23:04.028Z,96841.06
2022-11-12T04:26:08.263Z,96854.09
2022-11-12T04:29:12.719Z,96852.69
2022-11-12T04:31:58.667Z,96841.50
2022-11-12T04:34:44.557Z,96843.16
2022-11-12T04:37:44.788Z,96838.53
2022-11-12T04:40:50.713Z,96845.09
2022-11-12T04:43:55.394Z,96848.19
2022-11-12T04:46:41.400Z,96846.56
2022-11-12T04:49:27.500Z,96851.25
2022-11-12T04:52:13.506Z,96842.03
2022-11-12T04:54:59.493Z,96841.28
2022-11-12T04:57:45.339Z,96832.84
2022-11-12T05:00:31.848Z,96832.09
2022-11-12T05:03:18.066Z,96831.03
2022-11-12T05:06:29.754Z,96835.31
2022-11-12T05:09:15.745Z,96833.91
2022-11-12T05:12:02.287Z,96825.94
2022-11-12T05:14:48.478Z,96826.38
2022-11-12T05:17:34.597Z,96827.16
2022-11-12T05:20:20.612Z,96829.94
2022-11-12T05:23:07.598Z,96824.19
2022-11-12T05:25:54.106Z,96823.50
2022-11-12T05:28:40.147Z,96823.16
2022-11-12T05:31:26.173Z,96819.38
2022-11-12T05:34:12.403Z,96823.59
2022-11-12T05:36:58.436Z,96821.69
2022-11-12T05:39:44.286Z,96819.75
2022-11-12T05:42:31.056Z,96829.00
2022-11-12T05:45:16.727Z,96817.53
2022-11-12T05:48:02.913Z,96824.50
2022-11-12T05:51:12.020Z,96824.13
2022-11-12T05:53:59.203Z,96824.50
2022-11-12T05:56:45.548Z,96824.53
2022-11-12T05:59:31.636Z,96822.56
2022-11-12T06:02:17.504Z,96819.88
2022-11-12T06:05:03.738Z,96817.25
2022-11-12T06:07:49.562Z,96813.38
2022-11-12T06:10:35.696Z,96810.66
2022-11-12T06:13:23.683Z,96811.50
2022-11-12T06:16:10.265Z,96816.47
2022-11-12T06:18:56.656Z,96803.44
2022-11-12T06:21:42.656Z,96804.19
2022-11-12T06:24:35.086Z,96773.69
2022-11-12T06:27:21.202Z,96793.81
2022-11-12T06:30:08.604Z,96796.94
2022-11-12T06:32:54.704Z,96795.38
2022-11-12T06:35:43.139Z,96786.16
2022-11-12T06:38:30.656Z,96798.44
2022-11-12T06:41:16.665Z,96782.25
2022-11-12T06:44:04.967Z,96786.84
2022-11-12T06:46:51.241Z,96791.84
2022-11-12T06:49:37.142Z,96783.00
2022-11-12T06:52:23.132Z,96782.66
2022-11-12T06:55:09.452Z,96776.91
2022-11-12T06:57:55.291Z,96767.31
2022-11-12T07:00:41.633Z,96768.88
2022-11-12T07:03:27.396Z,96755.00
2022-11-12T07:06:18.613Z,96760.03
2022-11-12T07:09:05.333Z,96756.91
2022-11-12T07:11:51.370Z,96750.00
2022-11-12T07:14:37.320Z,96743.09
2022-11-12T07:17:23.304Z,96740.06
2022-11-12T07:20:10.192Z,96738.91
2022-11-12T07:23:00.656Z,96738.94
2022-11-12T07:25:46.642Z,96723.13
2022-11-12T07:28:33.170Z,96736.63
2022-11-12T07:31:20.642Z,96725.47
2022-11-12T07:34:06.778Z,96718.94
2022-11-12T07:36:52.681Z,96700.47
2022-11-12T07:39:38.729Z,96702.41
2022-11-12T07:42:24.817Z,96678.56
2022-11-12T07:45:11.016Z,96684.72
2022-11-12T07:47:59.525Z,96698.19
2022-11-12T07:50:45.625Z,96697.81
2022-11-12T07:53:32.170Z,96698.97
2022-11-12T07:56:23.170Z,96701.28
2022-11-12T07:59:09.368Z,96698.22
2022-11-12T08:01:55.368Z,96697.84
2022-11-12T08:04:41.190Z,96691.31
2022-11-12T08:07:27.135Z,96687.06
2022-11-12T08:10:13.081Z,96697.44
2022-11-12T08:12:59.010Z,96699.38
2022-11-12T08:15:49.473Z,96699.00
2022-11-12T08:18:38.120Z,96701.69
2022-11-12T08:21:23.961Z,96707.06
2022-11-12T08:24:10.081Z,96696.28
2022-11-12T08:26:55.693Z,96694.38
2022-11-12T08:29:41.767Z,96689.00
2022-11-12T08:32:27.629Z,96685.13
2022-11-12T08:35:13.803Z,96676.69
2022-11-12T08:38:04.935Z,96673.22
2022-11-12T08:40:51.254Z,96676.28
2022-11-12T08:43:37.966Z,96660.88
2022-11-12T08:46:24.153Z,96656.66
2022-11-12T08:49:10.342Z,96657.44
2022-11-12T08:51:56.413Z,96651.66
2022-11-12T08:54:42.275Z,96642.44
2022-11-12T08:57:28.440Z,96651.31
2022-11-12T09:00:14.949Z,96645.56
2022-11-12T09:03:01.629Z,96647.47
2022-11-12T09:05:48.777Z,96643.63
2022-11-12T09:08:36.878Z,96653.22
2022-11-12T09:11:22.944Z,96627.06
2022-11-12T09:14:08.654Z,96624.72
2022-11-12T09:16:55.197Z,96615.84
2022-11-12T09:19:42.954Z,96605.09
2022-11-12T09:22:33.714Z,96626.63
2022-11-12T09:25:19.853Z,96607.03
2022-11-12T09:28:11.727Z,96605.88
2022-11-12T09:30:57.661Z,96599.34
2022-11-12T09:33:43.528Z,96607.81
2022-11-12T09:36:29.242Z,96602.41
2022-11-12T09:39:15.160Z,96601.63
2022-11-12T09:42:08.560Z,96596.63
2022-11-12T09:45:06.500Z,96591.25
2022-11-12T09:48:02.690Z,96601.25
2022-11-12T09:51:01.188Z,96576.25
2022-11-12T09:53:54.309Z,96577.41
2022-11-12T09:56:40.620Z,96569.31
2022-11-12T09:59:33.373Z,96576.59
2022-11-12T10:03:02.310Z,96565.47
2022-11-12T10:06:01.005Z,96560.84
2022-11-12T10:08:53.911Z,96562.00
2022-11-12T10:12:10.137Z,96555.84
2022-11-12T10:15:48.463Z,96548.91
2022-11-12T10:18:51.408Z,96552.00
2022-11-12T10:22:02.202Z,96542.78
2022-11-12T10:24:49.328Z,96538.53
2022-11-12T10:27:42.901Z,96537.38
2022-11-12T10:30:37.977Z,96533.53
2022-11-12T10:33:23.910Z,96537.00
2022-11-12T10:36:27.866Z,96527.75
2022-11-12T10:39:38.908Z,96525.44
2022-11-12T10:42:25.072Z,96521.59
2022-11-12T10:45:23.459Z,96526.97
2022-11-12T10:48:31.264Z,96516.59
2022-11-12T10:51:35.160Z,96511.59
2022-11-12T10:54:27.502Z,96510.44
2022-11-12T10:57:31.438Z,96505.06
2022-11-12T11:00:21.240Z,96497.38
2022-11-12T11:03:25.910Z,96487.75
2022-11-12T11:06:14.755Z,96485.84
2022-11-12T11:09:17.396Z,96489.66
2022-11-12T11:12:03.583Z,96481.94
2022-11-12T11:15:07.597Z,96470.81
2022-11-12T11:17:53.672Z,96454.69
2022-11-12T11:20:47.881Z,96458.53
2022-11-12T11:24:05.348Z,96456.97
2022-11-12T11:27:06.151Z,96455.81
2022-11-12T11:30:16.753Z,96453.16
2022-11-12T11:33:40.093Z,96452.38
2022-11-12T11:37:01.179Z,96443.91
2022-11-12T11:40:03.122Z,96443.91
2022-11-12T11:43:16.018Z,96439.31
2022-11-12T11:46:23.131Z,96436.22
2022-11-12T11:49:34.144Z,96432.00
2022-11-12T11:52:44.786Z,96419.31
2022-11-12T11:55:56.520Z,96424.69
2022-11-12T11:59:24.502Z,96415.09
2022-11-12T12:02:46.955Z,96415.09
2022-11-12T12:06:00.331Z,96403.19
2022-11-12T12:09:08.615Z,96406.63
2022-11-12T12:12:03.343Z,96400.91
2022-11-12T12:15:01.984Z,96397.84
2022-11-12T12:17:59.268Z,96383.97
2022-11-12T12:20:45.353Z,96385.94
2022-11-12T12:23:39.675Z,96372.84
2022-11-12T12:26:42.685Z,96368.25
2022-11-12T12:29:43.573Z,96364.75
2022-11-12T12:32:39.255Z,96362.50
2022-11-12T12:35:35.170Z,96362.09
2022-11-12T12:38:58.195Z,96351.72
2022-11-12T12:41:56.629Z,96344.78
2022-11-12T12:45:05.652Z,96349.81
2022-11-12T12:47:54.402Z,96337.13
2022-11-12T12:50:42.508Z,96329.44
2022-11-12T12:53:32.216Z,96328.69
2022-11-12T12:56:24.115Z,96328.66
2022-11-12T13:03:11.857Z,96319.41
2022-11-12T13:06:08.599Z,96309.06
2022-11-12T13:08:59.715Z,96317.91
2022-11-12T13:12:03.993Z,96303.34
2022-11-12T13:15:08.763Z,96297.59
2022-11-12T13:17:54.765Z,96295.66
2022-11-12T13:20:43.219Z,96286.81
2022-11-12T13:24:03.877Z,96282.56
2022-11-12T13:26:53.144Z,96275.66
2022-11-12T13:29:41.269Z,96269.13
2022-11-12T13:32:34.246Z,96271.41
2022-11-12T13:35:23.641Z,96275.28
2022-11-12T13:38:09.369Z,96239.22
2022-11-12T13:41:16.608Z,96259.56
2022-11-12T13:44:07.941Z,96257.63
2022-11-12T13:46:56.696Z,96241.50
2022-11-12T13:49:46.047Z,96237.69
2022-11-12T13:52:33.696Z,96228.84
2022-11-12T13:55:22.995Z,96236.53
2022-11-12T13:58:31.768Z,96216.56
2022-11-12T14:01:22.519Z,96210.44
2022-11-12T14:04:13.585Z,96203.53
2022-11-12T14:07:31.076Z,96195.84
2022-11-12T14:10:46.550Z,96192.41
2022-11-12T14:13:45.259Z,96165.88
2022-11-12T14:16:49.464Z,96179.69
2022-11-12T14:20:05.070Z,96173.16
2022-11-12T14:22:51.882Z,96162.06
2022-11-12T14:25:54.220Z,96156.31
2022-11-12T14:28:40.506Z,96153.25
2022-11-12T14:31:26.702Z,96143.66
2022-11-12T14:34:28.800Z,96134.84
2022-11-12T14:37:56.108Z,96117.94
2022-11-12T14:41:09.240Z,96121.00
2022-11-12T14:44:12.701Z,96106.44
2022-11-12T14:46:59.925Z,96105.31
2022-11-12T14:49:49.219Z,96111.44
2022-11-12T14:52:44.137Z,96102.59
2022-11-12T14:55:34.168Z,96081.13
2022-11-12T14:58:21.724Z,96084.63
2022-11-12T15:04:38.207Z,96068.84
2022-11-12T15:07:30.130Z,96072.28
2022-11-12T15:10:33.642Z,96066.16
2022-11-12T15:13:22.769Z,96056.97
2022-11-12T15:16:10.348Z,96052.75
2022-11-12T15:19:06.681Z,96042.38
2022-11-12T15:21:55.508Z,96035.84
2022-11-12T15:24:44.111Z,96030.84
2022-11-12T15:27:40.540Z,96034.66
2022-11-12T15:30:32.158Z,96012.00
2022-11-12T15:33:23.037Z,96003.56
2022-11-12T15:36:18.382Z,96007.44
2022-11-12T15:39:11.445Z,96001.34
2022-11-12T15:42:06.169Z,95995.53
2022-11-12T15:45:04.374Z,95993.66
2022-11-12T15:47:50.038Z,95977.19
2022-11-12T15:50:36.011Z,95974.91
2022-11-12T15:53:21.828Z,95973.75
2022-11-12T15:56:13.907Z,95972.16
2022-11-12T15:58:59.712Z,95960.66
2022-11-12T16:01:46.193Z,95955.94
2022-11-12T16:04:31.983Z,95953.31
2022-11-12T16:07:18.040Z,95949.47
2022-11-12T16:10:04.355Z,95944.84
2022-11-12T16:12:52.122Z,95946.78
2022-11-12T16:15:37.898Z,95939.53
2022-11-12T16:18:23.911Z,95928.81
2022-11-12T16:21:10.016Z,95942.16
2022-11-12T16:23:56.080Z,95929.88
2022-11-12T16:26:42.143Z,95928.00
2022-11-12T16:29:28.143Z,95917.25
2022-11-12T16:32:14.708Z,95917.66
2022-11-12T16:35:01.460Z,95919.19
2022-11-12T16:37:55.289Z,95901.94
2022-11-12T16:40:41.800Z,95898.84
2022-11-12T16:43:28.230Z,95901.16
2022-11-12T16:46:29.649Z,95892.66
2022-11-12T16:49:16.075Z,95881.94
2022-11-12T16:52:01.941Z,95880.41
2022-11-12T16:54:47.760Z,95873.16
2022-11-12T16:57:33.968Z,95871.22
2022-11-12T17:00:20.203Z,95858.47
2022-11-12T17:03:06.098Z,95849.81
2022-11-12T17:05:53.098Z,95860.84
2022-11-12T17:08:39.408Z,95847.81
2022-11-12T17:11:25.717Z,95838.97
2022-11-12T17:14:11.635Z,95841.22
2022-11-12T17:16:57.527Z,95835.56
2022-11-12T17:19:43.586Z,95829.06
2022-11-12T17:22:31.596Z,95818.28
2022-11-12T17:25:18.021Z,95827.44
2022-11-12T17:28:03.720Z,95817.50
2022-11-12T17:30:49.686Z,95813.72
2022-11-12T17:33:40.401Z,95811.75
2022-11-12T17:36:28.877Z,95805.97
2022-11-12T17:39:14.808Z,95802.56
2022-11-12T17:42:00.668Z,95797.50
2022-11-12T17:44:46.789Z,95804.03
2022-11-12T17:47:36.653Z,95797.19
2022-11-12T17:50:25.169Z,95782.22
2022-11-12T17:53:11.566Z,95789.13
2022-11-12T17:55:58.216Z,95788.38
2022-11-12T17:58:48.695Z,95777.66
2022-11-12T18:01:35.296Z,95761.19
2022-11-12T18:04:23.648Z,95760.03
2022-11-12T18:07:10.210Z,95758.56
2022-11-12T18:09:56.261Z,95746.31
2022-11-12T18:12:42.569Z,95750.16
2022-11-12T18:15:30.757Z,95738.97
2022-11-12T18:18:16.930Z,95731.66
2022-11-12T18:21:03.004Z,95735.41
2022-11-12T18:23:48.872Z,95731.19
2022-11-12T18:26:35.558Z,95723.50
2022-11-12T18:29:21.510Z,95718.56
2022-11-12T18:32:10.357Z,95692.97
2022-11-12T18:35:04.988Z,95690.69
2022-11-12T18:37:58.537Z,95688.69
2022-11-12T18:40:44.692Z,95686.75
2022-11-12T18:43:31.060Z,95684.13
2022-11-12T18:46:16.842Z,95686.13
2022-11-12T18:49:02.958Z,95672.34
2022-11-12T18:51:49.235Z,95660.50
2022-11-12T18:54:39.216Z,95679.88
2022-11-12T18:57:25.317Z,95673.16
2022-11-12T19:00:14.095Z,95672.03
2022-11-12T19:03:00.369Z,95660.25
2022-11-12T19:05:46.853Z,95661.41
2022-11-12T19:08:33.570Z,95661.78
2022-11-12T19:11:22.062Z,95661.00
2022-11-12T19:14:09.410Z,95645.31
2022-11-12T19:16:55.131Z,95642.31
2022-11-12T19:19:41.604Z,95639.25
2022-11-12T19:22:27.896Z,95636.88
2022-11-12T19:25:14.181Z,95633.78
2022-11-12T19:28:00.094Z,95628.44
2022-11-12T19:30:46.087Z,95625.78
2022-11-12T19:33:32.971Z,95622.72
2022-11-12T19:36:22.914Z,95621.22
2022-11-12T19:39:10.896Z,95611.25
2022-11-12T19:41:57.141Z,95603.94
2022-11-12T19:44:43.406Z,95602.38
2022-11-12T19:47:30.956Z,95594.66
2022-11-12T19:50:22.158Z,95593.91
2022-11-12T19:53:11.169Z,95599.63
2022-11-12T19:56:01.156Z,95584.25
2022-11-12T19:58:48.999Z,95591.22
2022-11-12T20:01:35.185Z,95573.16
2022-11-12T20:04:24.386Z,95567.34
2022-11-12T20:07:10.141Z,95569.69
2022-11-12T20:10:00.721Z,95557.41
2022-11-12T20:12:47.440Z,95562.16
2022-11-12T20:15:33.471Z,95529.47
2022-11-12T20:18:19.789Z,95549.31
2022-11-12T20:21:06.564Z,95538.06
2022-11-12T20:23:52.483Z,95539.31
2022-11-12T20:26:38.572Z,95533.91
2022-11-12T20:29:24.777Z,95523.38
2022-11-12T20:32:10.904Z,95516.09
2022-11-12T20:34:56.761Z,95516.81
2022-11-12T20:37:42.858Z,95511.50
2022-11-12T20:40:28.876Z,95507.66
2022-11-12T20:43:15.639Z,95507.28
2022-11-12T20:46:01.611Z,95506.25
2022-11-12T20:48:47.288Z,95499.75
2022-11-12T20:51:35.233Z,95497.38
2022-11-12T20:54:21.254Z,95497.81
2022-11-12T20:57:06.863Z,95487.16
2022-11-12T20:59:53.026Z,95476.41
2022-11-12T21:02:39.174Z,95466.53
2022-11-12T21:05:25.389Z,95444.47
2022-11-12T21:08:11.276Z,95456.63
2022-11-12T21:10:58.329Z,95468.47
2022-11-12T21:13:44.445Z,95445.47
2022-11-12T21:16:30.570Z,95445.84
2022-11-12T21:19:17.175Z,95449.63
2022-11-12T21:22:03.278Z,95443.06
2022-11-12T21:24:49.369Z,95448.75
2022-11-12T21:27:35.181Z,95437.63
2022-11-12T21:30:21.198Z,95435.69
2022-11-12T21:33:06.835Z,95432.94
2022-11-12T21:35:53.694Z,95435.91
2022-11-12T21:38:39.633Z,95420.53
2022-11-12T21:41:28.428Z,95420.06
2022-11-12T21:44:14.179Z,95417.44
2022-11-12T21:47:00.483Z,95417.88
2022-11-12T21:49:46.375Z,95414.06
2022-11-12T21:52:32.426Z,95409.00
2022-11-12T21:55:18.225Z,95400.19
2022-11-12T21:58:04.210Z,95395.56
2022-11-12T22:00:50.117Z,95403.56
2022-11-12T22:03:36.127Z,95392.44
2022-11-12T22:06:24.238Z,95385.19
2022-11-12T22:09:10.031Z,95380.94
2022-11-12T22:11:56.135Z,95377.84
2022-11-12T22:14:42.121Z,95370.16
2022-11-12T22:17:33.818Z,95380.00
2022-11-12T22:20:20.114Z,95359.81
2022-11-12T22:23:05.986Z,95352.50
2022-11-12T22:25:52.830Z,95361.28
2022-11-12T22:28:38.798Z,95340.56
2022-11-12T22:31:30.474Z,95335.22
2022-11-12T22:34:16.451Z,95342.72
2022-11-12T22:44:10.536Z,95316.38
2022-11-12T22:46:56.887Z,95322.59
2022-11-12T22:49:42.722Z,95308.97
2022-11-12T22:52:29.369Z,95300.81
2022-11-12T22:55:15.588Z,95296.78
2022-11-12T22:58:01.271Z,95298.97
2022-11-12T23:00:47.372Z,95299.03
2022-11-12T23:03:34.539Z,95284.50
2022-11-12T23:06:20.712Z,95276.28
2022-11-12T23:09:06.899Z,95286.34
2022-11-12T23:11:53.077Z,95268.44
2022-11-12T23:14:38.859Z,95268.84
2022-11-12T23:17:24.997Z,95265.00
2022-11-12T23:20:11.396Z,95259.97
2022-11-12T23:22:57.288Z,95258.88
2022-11-12T23:25:43.407Z,95247.75
2022-11-12T23:28:29.754Z,95249.56
2022-11-12T23:31:19.088Z,95250.50
2022-11-12T23:34:05.080Z,95244.03
2022-11-12T23:36:50.856Z,95248.94
2022-11-12T23:39:36.785Z,95244.28
2022-11-12T23:42:22.715Z,95233.81
2022-11-12T23:45:09.423Z,95231.84
2022-11-12T23:47:57.399Z,95222.41
2022-11-12T23:50:43.384Z,95224.34
2022-11-12T23:53:29.429Z,95206.06
2022-11-12T23:56:18.441Z,95212.47
2022-11-12T23:59:04.579Z,95206.06
